Sturgis, MI

5:34 AM EDT on March 28, 2017 (GMT -0400)
Kirsch Municipal

Weather History for KIRS - December, 2013

Change the Weather History Date:

Wednesday, December 25, 2013

  Actual Average (KHAI) Record (KHAI)
Temperature  
Mean Temperature 20 °F -  
Max Temperature 24 °F 30 °F 65 °F (1982)
Min Temperature 17 °F 16 °F -10 °F (1983)
Degree Days  
Heating Degree Days 44    
Moisture  
Dew Point 18 °F    
Average Humidity 85    
Maximum Humidity 100    
Minimum Humidity 74    
Precipitation  
Precipitation 0.00 in - - ()
Sea Level Pressure  
Sea Level Pressure 30.19 in    
Wind  
Wind Speed 12 mph (SSW)    
Max Wind Speed 18 mph    
Max Gust Speed 23 mph    
Visibility 8 miles    
Events Snow    
Averages and records for this station are not official NWS values.
T = Trace of Precipitation, MM = Missing Value Source: NWS Daily Summary

Daily Weather History Graph

Daily Weather History Graph

Search for Another Location

Airport or City:

Trip Planner

Search our weather history database for the weather conditions in past years. The results will help you decide how hot, cold, wet, or windy it might be!

Date:

Astronomy

Dec. 25, 2013 Rise Set
Actual Time 8:07 AM EST 5:16 PM EST
Civil Twilight 7:36 AM EST 5:48 PM EST
Nautical Twilight 7:00 AM EST 6:23 PM EST
Astronomical Twilight 6:27 AM EST 6:57 PM EST
Moon 12:29 AM EST (12/25) 12:24 PM EST (12/25)
Length of Visible Light 10h 12m
Length of Day
9h 08m
Waning Gibbous, 49% of the Moon is Illuminated
Dec 25
Waning Gibbous
Jan 1
New
Jan 7
First Quarter
Jan 15
Full
Jan 24
Last Quarter

Hourly Weather History & Observations

Time (EST) Temp. Windchill Dew Point Humidity Pressure Visibility Wind Dir Wind Speed Gust Speed Precip Events Conditions
5:31 AM 17.6 °F 4.3 °F 12.2 °F 79% 30.30 in 10.0 mi South 12.7 mph 18.4 mph N/A   Overcast
5:34 AM 17.6 °F 5.7 °F 12.2 °F 79% 30.29 in 10.0 mi South 10.4 mph 18.4 mph N/A   Overcast
5:55 AM 19.4 °F 6.0 °F 12.2 °F 74% 30.27 in 10.0 mi South 13.8 mph 18.4 mph N/A   Overcast
6:15 AM 19.4 °F 5.0 °F 12.2 °F 74% 30.28 in 10.0 mi South 16.1 mph 23.0 mph N/A   Overcast
6:34 AM 19.4 °F 8.6 °F 14.0 °F 80% 30.29 in 10.0 mi South 9.2 mph - N/A   Overcast
6:55 AM 19.4 °F 6.6 °F 14.0 °F 80% 30.27 in 10.0 mi South 12.7 mph 18.4 mph N/A   Overcast
7:15 AM 19.4 °F 6.0 °F 14.0 °F 80% 30.27 in 10.0 mi South 13.8 mph 18.4 mph N/A   Overcast
7:34 AM 19.4 °F 6.6 °F 14.0 °F 80% 30.28 in 10.0 mi South 12.7 mph - N/A   Overcast
7:55 AM 19.4 °F 7.2 °F 14.0 °F 80% 30.27 in 10.0 mi South 11.5 mph - N/A Snow Light Snow
8:15 AM 19.4 °F 5.0 °F 14.0 °F 80% 30.26 in 5.0 mi South 16.1 mph - N/A Snow Light Snow
8:34 AM 19.4 °F 7.2 °F 15.8 °F 86% 30.27 in 10.0 mi SSW 11.5 mph - N/A Snow Light Snow
8:55 AM 19.4 °F 6.6 °F 15.8 °F 86% 30.27 in 5.0 mi South 12.7 mph - N/A Snow Light Snow
9:15 AM 19.4 °F 6.6 °F 15.8 °F 86% 30.26 in 1.0 mi South 12.7 mph 17.3 mph N/A Snow Light Snow
9:34 AM 19.4 °F 7.9 °F 17.6 °F 93% 30.26 in 1.0 mi South 10.4 mph - N/A Snow Light Snow
9:55 AM 19.4 °F 6.6 °F 17.6 °F 93% 30.26 in 1.0 mi South 12.7 mph - N/A Snow Light Snow
10:15 AM 19.4 °F 7.2 °F 17.6 °F 93% 30.26 in 2.5 mi South 11.5 mph - N/A Snow Light Snow
10:34 AM 19.4 °F 6.6 °F 17.6 °F 93% 30.26 in 7.0 mi SSW 12.7 mph - N/A   Overcast
10:55 AM 21.2 °F 8.9 °F 17.6 °F 86% 30.26 in 10.0 mi SSW 12.7 mph - N/A   Overcast
11:15 AM 21.2 °F 8.9 °F 17.6 °F 86% 30.25 in 10.0 mi SSW 12.7 mph - N/A   Overcast
11:34 AM 21.2 °F 6.8 °F 17.6 °F 86% 30.24 in 10.0 mi SSW 17.3 mph - N/A   Overcast
11:55 AM 21.2 °F 7.8 °F 17.6 °F 86% 30.22 in 10.0 mi SSW 15.0 mph - N/A   Overcast
12:15 PM 21.2 °F 7.3 °F 17.6 °F 86% 30.21 in 10.0 mi SSW 16.1 mph - N/A   Overcast
12:34 PM 21.2 °F 6.4 °F 17.6 °F 86% 30.20 in 10.0 mi SSW 18.4 mph - N/A   Overcast
12:55 PM 21.2 °F 7.3 °F 17.6 °F 86% 30.19 in 10.0 mi SW 16.1 mph - N/A   Overcast
1:15 PM 21.2 °F 7.8 °F 17.6 °F 86% 30.19 in 10.0 mi SW 15.0 mph - N/A   Overcast
1:35 PM 23.0 °F 10.1 °F 17.6 °F 80% 30.18 in 10.0 mi WSW 15.0 mph - N/A   Overcast
1:54 PM 23.0 °F 10.1 °F 19.4 °F 86% 30.17 in 10.0 mi SW 15.0 mph - N/A   Overcast
2:15 PM 23.0 °F 11.1 °F 19.4 °F 86% 30.17 in 10.0 mi SW 12.7 mph - N/A   Overcast
2:34 PM 23.0 °F 11.1 °F 19.4 °F 86% 30.17 in 10.0 mi SW 12.7 mph - N/A   Overcast
2:55 PM 23.0 °F 11.1 °F 19.4 °F 86% 30.16 in 10.0 mi SW 12.7 mph - N/A   Overcast
3:15 PM 23.0 °F 11.7 °F 19.4 °F 86% 30.16 in 10.0 mi SW 11.5 mph - N/A   Overcast
3:34 PM 23.0 °F 12.4 °F 19.4 °F 86% 30.16 in 10.0 mi SW 10.4 mph - N/A   Overcast
3:55 PM 24.8 °F 14.6 °F 19.4 °F 80% 30.16 in 10.0 mi SW 10.4 mph - N/A   Overcast
4:15 PM 24.8 °F 16.1 °F 19.4 °F 80% 30.16 in 10.0 mi SW 8.1 mph - N/A   Overcast
4:34 PM 24.8 °F 14.6 °F 19.4 °F 80% 30.16 in 10.0 mi SW 10.4 mph - N/A   Overcast
4:55 PM 24.8 °F 14.0 °F 19.4 °F 80% 30.16 in 10.0 mi SW 11.5 mph - N/A   Overcast
5:15 PM 24.8 °F 16.1 °F 19.4 °F 80% 30.16 in 10.0 mi SW 8.1 mph - N/A   Overcast
5:34 PM 24.8 °F 16.1 °F 19.4 °F 80% 30.16 in 10.0 mi SSW 8.1 mph - N/A   Overcast
5:55 PM 24.8 °F 17.9 °F 19.4 °F 80% 30.15 in 10.0 mi SSW 5.8 mph - N/A   Overcast
6:15 PM 24.8 °F 16.1 °F 19.4 °F 80% 30.15 in 10.0 mi SSW 8.1 mph - N/A   Overcast
6:34 PM 24.8 °F 16.1 °F 19.4 °F 80% 30.15 in 10.0 mi SSW 8.1 mph - N/A   Overcast
6:55 PM 24.8 °F 15.3 °F 21.2 °F 86% 30.14 in 10.0 mi SSW 9.2 mph - N/A   Overcast
7:15 PM 24.8 °F 15.3 °F 21.2 °F 86% 30.14 in 10.0 mi SSW 9.2 mph - N/A   Overcast
7:34 PM 24.8 °F 16.1 °F 21.2 °F 86% 30.13 in 10.0 mi SSW 8.1 mph - N/A   Overcast
7:55 PM 24.8 °F 16.1 °F 21.2 °F 86% 30.13 in 10.0 mi South 8.1 mph - N/A   Overcast
8:15 PM 24.8 °F 14.6 °F 21.2 °F 86% 30.13 in 10.0 mi South 10.4 mph - N/A   Overcast
8:34 PM 24.8 °F 15.3 °F 21.2 °F 86% 30.13 in 10.0 mi SSW 9.2 mph - N/A   Overcast
8:55 PM 24.8 °F 15.3 °F 21.2 °F 86% 30.12 in 10.0 mi SSW 9.2 mph - N/A   Overcast
9:15 PM 24.8 °F 14.6 °F 21.2 °F 86% 30.12 in 7.0 mi SSW 10.4 mph - N/A   Overcast
9:34 PM 24.8 °F 15.3 °F 21.2 °F 86% 30.11 in 7.0 mi SSW 9.2 mph - N/A   Overcast
9:55 PM 24.8 °F 14.0 °F 21.2 °F 86% 30.10 in 7.0 mi SSW 11.5 mph - N/A   Overcast
10:15 PM 24.8 °F 14.0 °F 21.2 °F 86% 30.10 in 4.0 mi SSW 11.5 mph 17.3 mph N/A Snow Light Snow
10:34 PM 24.8 °F 13.4 °F 23.0 °F 93% 30.09 in 4.0 mi SSW 12.7 mph - N/A   Overcast
10:55 PM 24.8 °F 15.3 °F 23.0 °F 93% 30.08 in 3.0 mi SSW 9.2 mph - N/A   Overcast
11:15 PM 24.8 °F 13.4 °F 23.0 °F 93% 30.07 in 3.0 mi SSW 12.7 mph - N/A Snow Light Snow
11:34 PM 24.8 °F 13.4 °F 23.0 °F 93% 30.07 in 3.0 mi SSW 12.7 mph - N/A Snow Light Snow
11:55 PM 24.8 °F 14.6 °F 24.8 °F 100% 30.06 in 1.0 mi SSW 10.4 mph - N/A Snow Snow